createdAt,value
2018-08-23T00:00:42.959Z,70.57
2018-08-23T00:03:16.891Z,70.95
2018-08-23T00:05:52.538Z,70.59
2018-08-23T00:08:21.328Z,70.26
2018-08-23T00:10:50.449Z,70.12
2018-08-23T00:13:19.290Z,69.90
2018-08-23T00:15:47.624Z,70.04
2018-08-23T00:18:16.047Z,69.86
2018-08-23T00:20:44.390Z,70.60
2018-08-23T00:23:12.688Z,70.09
2018-08-23T00:25:40.998Z,69.83
2018-08-23T00:28:09.529Z,70.41
2018-08-23T00:30:38.156Z,70.03
2018-08-23T00:33:06.890Z,70.04
2018-08-23T00:35:36.630Z,71.99
2018-08-23T00:38:05.926Z,72.50
2018-08-23T00:40:38.226Z,72.15
2018-08-23T00:43:07.812Z,71.40
2018-08-23T00:45:36.192Z,71.54
2018-08-23T00:48:04.546Z,71.19
2018-08-23T00:50:48.857Z,71.05
2018-08-23T00:53:17.376Z,71.17
2018-08-23T00:55:45.682Z,71.22
2018-08-23T00:58:13.971Z,71.57
2018-08-23T01:00:48.270Z,71.06
2018-08-23T01:03:17.162Z,72.83
2018-08-23T01:05:45.986Z,73.03
2018-08-23T01:08:14.653Z,71.92
2018-08-23T01:10:42.948Z,71.90
2018-08-23T01:13:11.252Z,71.68
2018-08-23T01:15:40.788Z,71.80
2018-08-23T01:18:18.274Z,71.87
2018-08-23T01:20:47.669Z,71.40
2018-08-23T01:23:16.050Z,70.92
2018-08-23T01:25:46.463Z,71.63
2018-08-23T01:28:14.805Z,72.06
2018-08-23T01:30:43.721Z,71.01
2018-08-23T01:33:12.942Z,71.68
2018-08-23T01:35:42.623Z,72.05
2018-08-23T01:38:11.526Z,71.67
2018-08-23T01:40:39.853Z,71.67
2018-08-23T01:43:08.207Z,72.15
2018-08-23T01:45:36.558Z,72.43
2018-08-23T01:48:06.959Z,72.09
2018-08-23T01:50:35.314Z,72.36
2018-08-23T01:53:03.610Z,72.55
2018-08-23T01:55:31.897Z,72.97
2018-08-23T01:58:00.286Z,73.33
2018-08-23T02:00:29.768Z,72.41
2018-08-23T02:02:58.086Z,72.59
2018-08-23T02:05:26.361Z,72.96
2018-08-23T02:07:54.743Z,72.05
2018-08-23T02:10:23.035Z,71.77
2018-08-23T02:12:52.529Z,72.73
2018-08-23T02:15:20.992Z,72.51
2018-08-23T02:17:56.431Z,73.22
2018-08-23T02:20:25.693Z,73.09
2018-08-23T02:22:54.618Z,73.56
2018-08-23T02:25:22.890Z,73.22
2018-08-23T02:27:59.470Z,73.35
2018-08-23T02:30:42.363Z,72.83
2018-08-23T02:33:11.888Z,72.31
2018-08-23T02:35:40.670Z,72.42
2018-08-23T02:38:09.663Z,72.19
2018-08-23T02:40:39.199Z,72.15
2018-08-23T02:43:07.474Z,72.88
2018-08-23T02:45:41.062Z,72.78
2018-08-23T02:48:09.438Z,72.60
2018-08-23T02:50:37.730Z,73.95
2018-08-23T02:53:24.524Z,73.76
2018-08-23T02:55:53.836Z,74.95
2018-08-23T02:58:23.331Z,73.50
2018-08-23T03:00:51.670Z,73.06
2018-08-23T03:03:19.995Z,73.83
2018-08-23T03:05:48.324Z,74.02
2018-08-23T03:08:16.784Z,75.41
2018-08-23T03:10:45.115Z,75.82
2018-08-23T03:13:13.388Z,76.66
2018-08-23T03:15:41.728Z,77.02
2018-08-23T03:18:10.030Z,76.80
2018-08-23T03:20:38.962Z,76.47
2018-08-23T03:23:07.294Z,75.94
2018-08-23T03:25:35.788Z,76.34
2018-08-23T03:28:04.185Z,76.83
2018-08-23T03:30:32.552Z,76.89
2018-08-23T03:33:00.939Z,76.41
2018-08-23T03:35:29.291Z,75.69
2018-08-23T03:37:57.600Z,76.24
2018-08-23T03:40:25.918Z,76.35
2018-08-23T03:42:54.198Z,76.58
2018-08-23T03:45:28.094Z,76.23
2018-08-23T03:47:56.749Z,75.98
2018-08-23T03:50:25.070Z,76.90
2018-08-23T03:52:54.650Z,76.73
2018-08-23T03:55:24.157Z,76.21
2018-08-23T03:58:07.336Z,76.58
2018-08-23T04:00:46.792Z,76.53
2018-08-23T04:03:19.590Z,76.05
2018-08-23T04:05:48.202Z,75.85
2018-08-23T04:08:16.623Z,75.93
2018-08-23T04:10:45.037Z,76.40
2018-08-23T04:13:13.361Z,75.97
2018-08-23T04:15:41.679Z,77.32
2018-08-23T04:18:14.122Z,76.31
2018-08-23T04:20:51.555Z,75.40
2018-08-23T04:23:19.904Z,75.49
2018-08-23T04:25:48.196Z,76.76
2018-08-23T04:28:16.565Z,75.41
2018-08-23T04:30:44.818Z,76.97
2018-08-23T04:33:13.335Z,76.81
2018-08-23T04:35:41.646Z,78.20
2018-08-23T04:38:09.941Z,78.85
2018-08-23T04:40:38.238Z,78.34
2018-08-23T04:43:06.589Z,78.05
2018-08-23T04:45:34.893Z,77.85
2018-08-23T04:48:09.360Z,77.43
2018-08-23T04:50:39.103Z,77.96
2018-08-23T04:53:07.411Z,77.50
2018-08-23T04:55:35.656Z,76.79
2018-08-23T04:58:04.681Z,77.57
2018-08-23T05:00:33.181Z,77.96
2018-08-23T05:03:01.524Z,77.67
2018-08-23T05:05:29.833Z,77.26
2018-08-23T05:07:58.145Z,77.64
2018-08-23T05:10:26.487Z,76.73
2018-08-23T05:12:54.866Z,77.28
2018-08-23T05:15:23.152Z,76.62
2018-08-23T05:17:51.469Z,77.51
2018-08-23T05:20:20.098Z,76.78
2018-08-23T05:22:54.050Z,77.20
2018-08-23T05:25:23.584Z,77.36
2018-08-23T05:28:07.308Z,77.15
2018-08-23T05:30:36.637Z,76.34
2018-08-23T05:33:10.421Z,75.71
2018-08-23T05:35:39.097Z,76.19
2018-08-23T05:38:08.207Z,76.04
2018-08-23T05:40:42.410Z,76.15
2018-08-23T05:43:11.073Z,74.81
2018-08-23T05:45:44.693Z,74.68
2018-08-23T05:48:22.931Z,74.98
2018-08-23T05:50:51.456Z,74.67
2018-08-23T05:53:20.419Z,74.99
2018-08-23T05:55:52.784Z,75.14
2018-08-23T05:58:25.463Z,74.87
2018-08-23T06:00:55.014Z,73.94
2018-08-23T06:03:24.458Z,72.94
2018-08-23T06:05:53.646Z,73.67
2018-08-23T06:08:22.014Z,73.43
2018-08-23T06:10:55.697Z,73.40
2018-08-23T06:13:23.955Z,72.45
2018-08-23T06:15:53.402Z,72.13
2018-08-23T06:18:22.286Z,71.09
2018-08-23T06:20:50.583Z,71.11
2018-08-23T06:23:19.398Z,71.61
2018-08-23T06:25:48.354Z,72.21
2018-08-23T06:28:19.458Z,71.40
2018-08-23T06:30:47.894Z,70.34
2018-08-23T06:33:31.999Z,70.28
2018-08-23T06:36:00.147Z,69.40
2018-08-23T06:38:28.817Z,69.91
2018-08-23T06:40:57.507Z,69.56
2018-08-23T06:43:25.783Z,69.25
2018-08-23T06:45:54.067Z,69.21
2018-08-23T06:48:22.364Z,69.24
2018-08-23T06:50:55.922Z,69.68
2018-08-23T06:53:30.111Z,69.41
2018-08-23T06:55:59.040Z,69.25
2018-08-23T06:58:27.515Z,68.64
2018-08-23T07:00:56.223Z,68.73
2018-08-23T07:03:24.673Z,67.85
2018-08-23T07:05:52.983Z,67.82
2018-08-23T07:08:23.445Z,67.93
2018-08-23T07:11:00.431Z,67.73
2018-08-23T07:13:28.695Z,67.93
2018-08-23T07:15:59.946Z,68.12
2018-08-23T07:18:29.829Z,66.74
2018-08-23T07:20:58.150Z,66.99
2018-08-23T07:23:31.679Z,66.57
2018-08-23T07:25:59.992Z,66.84
2018-08-23T07:28:28.265Z,66.27
2018-08-23T07:30:56.586Z,66.94
2018-08-23T07:33:24.984Z,65.81
2018-08-23T07:36:04.576Z,65.17
2018-08-23T07:38:32.883Z,65.23
2018-08-23T07:41:01.244Z,65.36
2018-08-23T07:43:29.505Z,64.67
2018-08-23T07:45:57.803Z,64.97
2018-08-23T07:48:26.190Z,64.66
2018-08-23T07:50:55.617Z,64.76
2018-08-23T07:53:24.234Z,64.01
2018-08-23T07:55:52.462Z,64.19
2018-08-23T07:58:20.765Z,63.35
2018-08-23T08:00:49.082Z,63.40
2018-08-23T08:03:17.454Z,63.27
2018-08-23T08:05:46.331Z,63.03
2018-08-23T08:08:14.777Z,62.49
2018-08-23T08:10:45.153Z,62.07
2018-08-23T08:13:13.527Z,61.24
2018-08-23T08:15:41.783Z,62.05
2018-08-23T08:18:23.708Z,61.72
2018-08-23T08:21:02.335Z,62.43
2018-08-23T08:23:31.070Z,61.20
2018-08-23T08:25:59.345Z,60.90
2018-08-23T08:28:27.642Z,60.21
2018-08-23T08:30:57.559Z,59.74
2018-08-23T08:33:26.346Z,59.23
2018-08-23T08:36:00.360Z,60.18
2018-08-23T08:38:28.755Z,60.17
2018-08-23T08:40:57.091Z,58.55
2018-08-23T08:43:26.702Z,58.97
2018-08-23T08:45:57.198Z,57.47
2018-08-23T08:48:32.569Z,57.72
2018-08-23T08:51:23.493Z,57.11
2018-08-23T08:53:52.361Z,57.05
2018-08-23T08:56:28.879Z,56.39
2018-08-23T08:58:57.170Z,56.85
2018-08-23T09:01:25.463Z,55.93
2018-08-23T09:03:53.735Z,56.88
2018-08-23T09:06:55.956Z,57.28
2018-08-23T09:09:31.275Z,57.54
2018-08-23T09:12:02.395Z,56.83
2018-08-23T09:14:30.707Z,57.24
2018-08-23T09:16:58.997Z,55.67
2018-08-23T09:19:38.803Z,55.56
2018-08-23T09:22:12.540Z,55.41
2018-08-23T09:24:40.825Z,54.08
2018-08-23T09:27:17.524Z,54.72
2018-08-23T09:29:45.968Z,54.59
2018-08-23T09:32:21.219Z,54.35
2018-08-23T09:34:49.972Z,54.51
2018-08-23T09:37:18.285Z,54.87
2018-08-23T09:39:46.780Z,54.66
2018-08-23T09:42:15.190Z,55.04
2018-08-23T09:44:58.826Z,53.02
2018-08-23T09:47:28.039Z,53.69
2018-08-23T09:49:56.949Z,53.28
2018-08-23T09:52:28.474Z,51.74
2018-08-23T09:54:56.773Z,50.88
2018-08-23T09:57:25.607Z,50.00
2018-08-23T09:59:54.776Z,51.00
2018-08-23T10:02:28.558Z,50.81
2018-08-23T10:05:00.999Z,50.80
2018-08-23T10:07:34.670Z,49.46
2018-08-23T10:10:08.495Z,48.94
2018-08-23T10:12:42.007Z,49.30
2018-08-23T10:15:15.763Z,48.40
2018-08-23T10:17:49.278Z,48.87
2018-08-23T10:20:22.847Z,49.42
2018-08-23T10:23:00.104Z,48.97
2018-08-23T10:25:53.160Z,47.52
2018-08-23T10:28:22.723Z,47.54
2018-08-23T10:30:51.260Z,48.43
2018-08-23T10:33:19.594Z,47.10
2018-08-23T10:35:51.063Z,47.37
2018-08-23T10:38:20.679Z,48.14
2018-08-23T10:40:49.961Z,48.31
2018-08-23T10:43:22.459Z,47.11
2018-08-23T10:46:09.129Z,48.43
2018-08-23T10:48:37.447Z,48.08
2018-08-23T10:51:07.182Z,47.84
2018-08-23T10:53:40.524Z,46.79
2018-08-23T10:56:12.336Z,47.46
2018-08-23T10:58:44.147Z,46.42
2018-08-23T11:01:16.312Z,47.01
2018-08-23T11:03:48.275Z,48.50
2018-08-23T11:06:24.020Z,47.84
2018-08-23T11:08:59.798Z,47.39
2018-08-23T11:11:35.322Z,46.73
2018-08-23T11:14:09.528Z,45.85
2018-08-23T11:16:49.546Z,46.01
2018-08-23T11:19:27.694Z,44.26
2018-08-23T11:21:58.191Z,44.91
2018-08-23T11:24:26.557Z,44.67
2018-08-23T11:26:54.914Z,43.60
2018-08-23T11:29:23.434Z,43.54
2018-08-23T11:31:51.882Z,43.93
2018-08-23T11:34:20.585Z,43.96
2018-08-23T11:36:48.979Z,42.42
2018-08-23T11:39:17.391Z,42.79
2018-08-23T11:41:45.742Z,42.89
2018-08-23T11:44:14.061Z,41.65
2018-08-23T11:46:42.384Z,41.48
2018-08-23T11:49:10.714Z,42.91
2018-08-23T11:51:39.083Z,44.14
2018-08-23T11:54:07.416Z,42.41
2018-08-23T11:56:35.929Z,41.92
2018-08-23T11:59:04.308Z,42.15
2018-08-23T12:01:32.552Z,38.19
2018-08-23T12:04:01.264Z,38.05
2018-08-23T12:06:29.950Z,38.34
2018-08-23T12:08:58.298Z,38.68
2018-08-23T12:11:26.643Z,38.28
2018-08-23T12:13:55.115Z,39.97
2018-08-23T12:16:23.741Z,38.75
2018-08-23T12:18:52.280Z,38.58
2018-08-23T12:21:20.651Z,40.34
2018-08-23T12:23:49.119Z,39.59
2018-08-23T12:26:17.478Z,38.40
2018-08-23T12:28:51.165Z,38.46
2018-08-23T12:31:19.482Z,36.55
2018-08-23T12:33:47.819Z,35.69
2018-08-23T12:36:20.366Z,36.98
2018-08-23T12:38:54.135Z,37.04
2018-08-23T12:41:28.124Z,36.54
2018-08-23T12:43:56.754Z,36.18
2018-08-23T12:46:25.411Z,35.78
2018-08-23T12:48:56.949Z,35.67
2018-08-23T12:51:25.292Z,35.41
2018-08-23T12:53:54.533Z,35.93
2018-08-23T12:56:23.035Z,36.47
2018-08-23T12:58:52.507Z,35.52
2018-08-23T13:01:22.883Z,35.06
2018-08-23T13:03:51.414Z,35.89
2018-08-23T13:06:19.889Z,36.18
2018-08-23T13:08:48.301Z,36.87
2018-08-23T13:11:16.892Z,36.33
2018-08-23T13:13:45.770Z,36.61
2018-08-23T13:16:14.247Z,36.78
2018-08-23T13:18:42.918Z,36.46
2018-08-23T13:21:11.398Z,37.12
2018-08-23T13:23:44.093Z,37.79
2018-08-23T13:26:12.693Z,40.01
2018-08-23T13:28:41.342Z,39.30
2018-08-23T13:31:09.892Z,38.88
2018-08-23T13:33:38.518Z,38.38
2018-08-23T13:36:07.014Z,38.43
2018-08-23T13:38:35.569Z,39.13
2018-08-23T13:41:04.343Z,37.95
2018-08-23T13:43:32.954Z,38.12
2018-08-23T13:46:01.471Z,38.05
2018-08-23T13:48:29.988Z,37.53
2018-08-23T13:50:58.285Z,39.40
2018-08-23T13:53:26.731Z,38.95
2018-08-23T13:55:55.591Z,39.38
2018-08-23T13:58:23.980Z,39.26
2018-08-23T14:00:52.443Z,37.41
2018-08-23T14:03:20.757Z,37.11
2018-08-23T14:05:49.094Z,36.18
2018-08-23T14:08:17.382Z,36.56
2018-08-23T14:10:46.063Z,37.12
2018-08-23T14:13:14.588Z,35.33
2018-08-23T14:15:48.392Z,37.19
2018-08-23T14:18:17.052Z,36.88
2018-08-23T14:20:45.856Z,38.37
2018-08-23T14:23:14.261Z,37.31
2018-08-23T14:25:44.035Z,39.00
2018-08-23T14:28:12.704Z,39.24
2018-08-23T14:30:41.253Z,38.11
2018-08-23T14:33:09.635Z,38.20
2018-08-23T14:35:38.034Z,36.80
2018-08-23T14:38:06.983Z,36.59
2018-08-23T14:40:35.747Z,36.95
2018-08-23T14:43:04.215Z,35.03
2018-08-23T14:45:33.662Z,34.93
2018-08-23T14:48:07.663Z,34.53
2018-08-23T14:50:37.186Z,34.88
2018-08-23T14:53:06.840Z,35.41
2018-08-23T14:55:40.888Z,35.30
2018-08-23T14:58:10.168Z,37.06
2018-08-23T15:00:38.605Z,35.53
2018-08-23T15:03:07.143Z,35.60
2018-08-23T15:05:35.719Z,36.03
2018-08-23T15:08:04.430Z,36.17
2018-08-23T15:10:32.991Z,36.62
2018-08-23T15:13:01.416Z,36.50
2018-08-23T15:15:35.225Z,37.72
2018-08-23T15:18:04.240Z,38.01
2018-08-23T15:20:32.569Z,37.76
2018-08-23T15:23:01.268Z,38.37
2018-08-23T15:25:29.851Z,38.88
2018-08-23T15:27:58.138Z,37.62
2018-08-23T15:30:26.544Z,38.26
2018-08-23T15:32:54.994Z,38.46
2018-08-23T15:35:23.539Z,37.65
2018-08-23T15:37:51.878Z,38.23
2018-08-23T15:40:20.549Z,37.69
2018-08-23T15:42:49.254Z,38.46
2018-08-23T15:45:18.400Z,38.79
2018-08-23T15:47:46.759Z,39.33
2018-08-23T15:50:15.248Z,38.87
2018-08-23T15:52:43.787Z,38.74
2018-08-23T15:55:12.241Z,38.83
2018-08-23T15:57:40.775Z,38.92
2018-08-23T16:00:10.198Z,38.85
2018-08-23T16:02:38.864Z,39.17
2018-08-23T16:05:07.307Z,39.20
2018-08-23T16:07:35.727Z,40.09
2018-08-23T16:10:06.103Z,40.86
2018-08-23T16:12:34.425Z,39.31
2018-08-23T16:15:07.109Z,40.47
2018-08-23T16:17:40.848Z,40.05
2018-08-23T16:20:14.538Z,41.30
2018-08-23T16:22:42.879Z,41.74
2018-08-23T16:25:11.283Z,42.08
2018-08-23T16:27:39.600Z,42.77
2018-08-23T16:30:08.063Z,42.87
2018-08-23T16:32:36.839Z,43.43
2018-08-23T16:35:05.273Z,42.73
2018-08-23T16:37:34.512Z,44.10
2018-08-23T16:40:03.132Z,43.74
2018-08-23T16:42:32.252Z,43.82
2018-08-23T16:45:01.370Z,43.68
2018-08-23T16:47:29.703Z,45.10
2018-08-23T16:49:58.034Z,44.31
2018-08-23T16:52:31.700Z,44.89
2018-08-23T16:54:59.963Z,45.97
2018-08-23T16:57:28.404Z,45.02
2018-08-23T16:59:56.681Z,45.32
2018-08-23T17:02:25.083Z,45.46
2018-08-23T17:04:53.386Z,45.47
2018-08-23T17:07:21.675Z,45.70
2018-08-23T17:09:49.991Z,45.27
2018-08-23T17:12:18.526Z,45.16
2018-08-23T17:14:46.948Z,45.47
2018-08-23T17:17:20.563Z,45.62
2018-08-23T17:19:48.946Z,45.01
2018-08-23T17:22:17.543Z,44.58
2018-08-23T17:24:45.856Z,44.55
2018-08-23T17:27:14.171Z,44.01
2018-08-23T17:29:42.530Z,43.89
2018-08-23T17:32:11.076Z,44.75
2018-08-23T17:34:39.367Z,44.17
2018-08-23T17:37:07.701Z,44.36
2018-08-23T17:39:36.029Z,44.81
2018-08-23T17:42:04.491Z,44.41
2018-08-23T17:44:33.311Z,44.93
2018-08-23T17:47:02.000Z,45.32
2018-08-23T17:49:33.093Z,45.09
2018-08-23T17:52:02.297Z,44.82
2018-08-23T17:54:30.857Z,45.63
2018-08-23T17:56:59.225Z,45.04
2018-08-23T17:59:27.630Z,45.18
2018-08-23T18:01:55.932Z,46.30
2018-08-23T18:04:24.380Z,46.22
2018-08-23T18:06:59.301Z,46.59
2018-08-23T18:09:27.709Z,46.46
2018-08-23T18:11:56.678Z,46.65
2018-08-23T18:14:25.157Z,47.13
2018-08-23T18:17:00.807Z,46.40
2018-08-23T18:19:29.228Z,47.56
2018-08-23T18:21:58.982Z,47.73
2018-08-23T18:24:27.372Z,47.09
2018-08-23T18:26:56.403Z,47.64
2018-08-23T18:29:24.902Z,47.42
2018-08-23T18:31:53.633Z,47.44
2018-08-23T18:34:21.988Z,48.57
2018-08-23T18:36:52.026Z,47.88
2018-08-23T18:39:21.827Z,49.35
2018-08-23T18:41:50.151Z,48.61
2018-08-23T18:44:18.606Z,49.36
2018-08-23T18:46:46.935Z,48.67
2018-08-23T18:49:15.397Z,49.77
2018-08-23T18:51:44.839Z,49.94
2018-08-23T18:54:13.272Z,50.21
2018-08-23T18:56:41.670Z,50.37
2018-08-23T18:59:10.223Z,50.33
2018-08-23T19:01:38.668Z,50.85
2018-08-23T19:04:07.064Z,49.90
2018-08-23T19:06:36.891Z,51.10
2018-08-23T19:09:10.910Z,50.46
2018-08-23T19:11:39.286Z,50.78
2018-08-23T19:14:07.881Z,50.12
2018-08-23T19:16:41.451Z,50.92
2018-08-23T19:19:09.935Z,51.11
2018-08-23T19:21:38.515Z,51.19
2018-08-23T19:24:06.468Z,51.53
2018-08-23T19:26:34.817Z,52.17
2018-08-23T19:29:03.251Z,52.48
2018-08-23T19:31:32.740Z,52.77
2018-08-23T19:34:04.220Z,52.04
2018-08-23T19:36:33.159Z,53.32
2018-08-23T19:39:01.531Z,53.83
2018-08-23T19:41:30.130Z,55.93
2018-08-23T19:43:58.539Z,56.52
2018-08-23T19:46:32.170Z,57.25
2018-08-23T19:49:05.902Z,57.49
2018-08-23T19:51:34.351Z,57.54
2018-08-23T19:54:04.009Z,57.80
2018-08-23T19:56:32.484Z,58.75
2018-08-23T19:59:00.985Z,58.92
2018-08-23T20:01:29.290Z,58.59
2018-08-23T20:03:58.938Z,58.89
2018-08-23T20:06:27.327Z,58.71
2018-08-23T20:08:55.662Z,59.15
2018-08-23T20:11:24.047Z,60.63
2018-08-23T20:13:53.794Z,62.27
2018-08-23T20:16:23.672Z,62.84
2018-08-23T20:18:52.147Z,62.21
2018-08-23T20:21:20.927Z,61.86
2018-08-23T20:23:49.759Z,59.57
2018-08-23T20:26:18.448Z,60.08
2018-08-23T20:28:46.813Z,59.78
2018-08-23T20:31:15.125Z,60.04
2018-08-23T20:33:43.467Z,60.34
2018-08-23T20:36:11.945Z,59.87
2018-08-23T20:38:40.939Z,60.08
2018-08-23T20:41:09.350Z,62.09
2018-08-23T20:43:38.301Z,62.15
2018-08-23T20:46:06.691Z,62.29
2018-08-23T20:48:35.407Z,62.19
2018-08-23T20:51:03.803Z,62.77
2018-08-23T20:53:32.168Z,63.38
2018-08-23T20:56:00.484Z,63.56
2018-08-23T20:58:29.388Z,62.80
2018-08-23T21:00:57.699Z,62.95
2018-08-23T21:03:26.085Z,63.08
2018-08-23T21:05:54.705Z,63.37
2018-08-23T21:08:23.028Z,63.70
2018-08-23T21:10:51.390Z,63.37
2018-08-23T21:13:19.819Z,63.35
2018-08-23T21:15:48.421Z,62.32
2018-08-23T21:18:16.872Z,62.11
2018-08-23T21:20:45.367Z,62.21
2018-08-23T21:23:14.362Z,62.91
2018-08-23T21:25:42.708Z,63.34
2018-08-23T21:28:11.095Z,63.68
2018-08-23T21:30:39.377Z,62.39
2018-08-23T21:33:07.753Z,63.10
2018-08-23T21:35:36.395Z,63.42
2018-08-23T21:38:04.781Z,63.84
2018-08-23T21:40:33.702Z,62.50
2018-08-23T21:43:02.142Z,63.42
2018-08-23T21:45:30.774Z,62.51
2018-08-23T21:47:59.090Z,63.21
2018-08-23T21:50:27.474Z,62.49
2018-08-23T21:52:56.207Z,62.89
2018-08-23T21:55:29.875Z,62.05
2018-08-23T21:57:58.188Z,61.83
2018-08-23T22:00:26.587Z,61.54
2018-08-23T22:02:55.225Z,61.43
2018-08-23T22:05:23.713Z,59.96
2018-08-23T22:07:52.162Z,60.51
2018-08-23T22:10:20.531Z,60.95
2018-08-23T22:12:48.870Z,60.97
2018-08-23T22:15:17.314Z,60.29
2018-08-23T22:17:45.699Z,60.45
2018-08-23T22:20:26.777Z,60.64
2018-08-23T22:22:55.139Z,60.68
2018-08-23T22:25:23.850Z,61.58
2018-08-23T22:27:52.381Z,62.47
2018-08-23T22:30:20.831Z,62.90
2018-08-23T22:32:49.139Z,62.80
2018-08-23T22:35:17.496Z,62.34
2018-08-23T22:37:45.823Z,62.73
2018-08-23T22:40:14.328Z,62.55
2018-08-23T22:42:42.957Z,62.29
2018-08-23T22:45:11.270Z,64.02
2018-08-23T22:47:39.559Z,63.46
2018-08-23T22:50:08.351Z,62.45
2018-08-23T22:52:36.683Z,62.35
2018-08-23T22:55:05.014Z,60.90
2018-08-23T22:57:33.381Z,61.21
2018-08-23T23:00:01.716Z,61.25
2018-08-23T23:02:35.503Z,61.45
2018-08-23T23:05:04.252Z,61.44
2018-08-23T23:07:32.713Z,62.28
2018-08-23T23:10:01.064Z,62.74
2018-08-23T23:12:29.772Z,62.29
2018-08-23T23:14:59.024Z,63.02
2018-08-23T23:17:29.056Z,62.26
2018-08-23T23:19:57.378Z,62.58
2018-08-23T23:22:25.886Z,62.05
2018-08-23T23:24:59.750Z,62.14
2018-08-23T23:27:28.389Z,63.05
2018-08-23T23:29:57.006Z,64.61
2018-08-23T23:32:25.359Z,68.01
2018-08-23T23:34:54.976Z,69.60
2018-08-23T23:37:23.652Z,69.58
2018-08-23T23:39:51.988Z,70.04
2018-08-23T23:42:20.328Z,68.33
2018-08-23T23:44:48.720Z,69.50
2018-08-23T23:47:17.155Z,70.62
2018-08-23T23:49:45.434Z,70.80
2018-08-23T23:52:13.891Z,70.20
2018-08-23T23:54:42.208Z,70.08
2018-08-23T23:57:10.656Z,68.88
2018-08-23T23:59:39.078Z,68.92
